NEDK1: Verdigris River, Neodesha Ks

                                SHEF ID:       NEDK1     Verdigris River, Neodesha Ks
STATION TYPE:

PRECIP STAGE RIV-FLOW VOLTAGE BAT-LOAD
in ft cfs volt volt
Ccp-Rev Ccp-Rev Ccp-Rev Ccp-Rev Ccp-Rev
(America/Chicago)
07/17 00:00 0.00 11.46 356 12.96 12.71
07/17 01:00 0.00 11.45 353 12.96 12.71
07/17 02:00 0.00 11.45 353 12.94 12.70
07/17 03:00 0.00 11.44 350 12.93 12.69
07/17 04:00 0.00 11.44 350 12.92 12.67
07/17 05:00 0.00 11.44 350 12.90 12.65
07/17 06:00 0.00 11.44 350 12.88 12.63
07/17 07:00 0.00 11.43 347 12.90 12.63
07/17 08:00 0.00 11.40 339 13.07 12.75
07/17 09:00 0.00 11.38 333 13.55 13.36
07/17 10:00 0.00 11.42 344 13.72 13.32
07/17 11:00 0.00 11.40 339 13.53 13.28
07/17 12:00 0.00 11.43 347 13.56 13.19
07/17 13:00 0.00 11.43 347 14.18 13.24
07/17 14:00 0.00 11.42 344 13.64 13.05
07/17 15:00 0.00 11.43 347 13.68 13.05
07/17 16:00 0.00 11.44 350 13.69 13.04
07/17 17:00 0.00 11.46 356 13.76 13.03
07/17 18:00 0.00 11.47 359 13.81 13.01
07/17 19:00 0.00 11.47 359 14.31 13.01
07/17 20:00 0.00 11.47 359 13.24 13.02
07/17 21:00 0.00 11.46 356 13.05 12.86
07/17 22:00 0.00 11.46 356 12.99 12.77
07/17 23:00 0.00 11.46 356 12.96 12.73
Data processed at Sat 18Jul2026 04:42 GMT

NOTICE: If you are parsing this page

Please convert to using our Data API. Starting early 2026 we will be migrating to: https://water.usace.army.mil with modern pages rendered in JavaScript. When this migration completes you will no longer be able to scrape this page! CWMSDataAPI (CDA)

Timeseries IDs (TSIDs)

TSIDs used from left to right in the data table
NEOD.Precip-Inc.Total.1Hour.1Hour.Ccp-Rev
NEOD.Stage.Inst.1Hour.0.Ccp-Rev
NEOD.Flow.Inst.1Hour.0.Ccp-Rev
NEOD.Volt-Battery.Inst.1Hour.0.Ccp-Rev
NEOD.Volt-Battery Load.Inst.1Hour.0.Ccp-Rev

                            

All information presented herein is the property of the government of the United States of America and may be revised or deleted at any time without prior notice. Dissemination of this information without the expressed written consent of the Public Affairs Office, Tulsa District U.S. Army Corps of Engineers is strictly prohibited. These data are gathered electronically and, as presented, have NOT undergone any form of quality control. These data are NOT guaranteed to be valid or correct.